sensor_id;sensor_type;location;lat;lon;timestamp;temperature;humidity
11246;DHT22;59870;50.106;8.580;2023-02-18T00:01:37;16.40;95.80
11246;DHT22;59870;50.106;8.580;2023-02-18T00:04:04;16.40;95.70
11246;DHT22;59870;50.106;8.580;2023-02-18T00:06:33;16.40;95.70
11246;DHT22;59870;50.106;8.580;2023-02-18T00:09:03;16.40;95.70
11246;DHT22;59870;50.106;8.580;2023-02-18T00:11:33;16.40;96.00
11246;DHT22;59870;50.106;8.580;2023-02-18T00:14:03;16.40;95.70
11246;DHT22;59870;50.106;8.580;2023-02-18T00:16:31;16.40;95.50
11246;DHT22;59870;50.106;8.580;2023-02-18T00:19:00;16.40;95.50
11246;DHT22;59870;50.106;8.580;2023-02-18T00:21:29;16.40;95.40
11246;DHT22;59870;50.106;8.580;2023-02-18T00:23:56;16.40;95.40
11246;DHT22;59870;50.106;8.580;2023-02-18T00:26:24;16.30;95.30
11246;DHT22;59870;50.106;8.580;2023-02-18T00:28:51;16.30;95.20
11246;DHT22;59870;50.106;8.580;2023-02-18T00:31:25;16.30;95.30
11246;DHT22;59870;50.106;8.580;2023-02-18T00:33:53;16.30;95.40
11246;DHT22;59870;50.106;8.580;2023-02-18T00:36:21;16.30;95.50
11246;DHT22;59870;50.106;8.580;2023-02-18T00:38:55;16.30;95.60
11246;DHT22;59870;50.106;8.580;2023-02-18T00:41:24;16.30;95.60
11246;DHT22;59870;50.106;8.580;2023-02-18T00:43:52;16.30;95.80
11246;DHT22;59870;50.106;8.580;2023-02-18T00:46:20;16.30;95.80
11246;DHT22;59870;50.106;8.580;2023-02-18T00:48:48;16.30;95.90
11246;DHT22;59870;50.106;8.580;2023-02-18T00:51:16;16.30;96.20
11246;DHT22;59870;50.106;8.580;2023-02-18T00:53:43;16.20;96.30
11246;DHT22;59870;50.106;8.580;2023-02-18T00:56:11;16.20;96.30
11246;DHT22;59870;50.106;8.580;2023-02-18T00:58:41;16.30;96.30
11246;DHT22;59870;50.106;8.580;2023-02-18T01:01:10;16.30;96.20
11246;DHT22;59870;50.106;8.580;2023-02-18T01:03:41;16.30;96.10
11246;DHT22;59870;50.106;8.580;2023-02-18T01:06:09;16.30;96.10
11246;DHT22;59870;50.106;8.580;2023-02-18T01:08:38;16.30;96.20
11246;DHT22;59870;50.106;8.580;2023-02-18T01:11:08;16.30;96.20
11246;DHT22;59870;50.106;8.580;2023-02-18T01:13:36;16.30;96.20
11246;DHT22;59870;50.106;8.580;2023-02-18T01:16:06;16.30;96.20
11246;DHT22;59870;50.106;8.580;2023-02-18T01:18:35;16.30;96.20
11246;DHT22;59870;50.106;8.580;2023-02-18T01:21:05;16.30;96.20
11246;DHT22;59870;50.106;8.580;2023-02-18T01:23:37;16.30;96.20
11246;DHT22;59870;50.106;8.580;2023-02-18T01:26:05;16.20;96.10
11246;DHT22;59870;50.106;8.580;2023-02-18T01:28:33;16.20;96.10
11246;DHT22;59870;50.106;8.580;2023-02-18T01:31:06;16.10;96.20
11246;DHT22;59870;50.106;8.580;2023-02-18T01:33:35;16.10;96.20
11246;DHT22;59870;50.106;8.580;2023-02-18T01:36:03;16.10;96.10
11246;DHT22;59870;50.106;8.580;2023-02-18T01:38:31;16.10;96.00
11246;DHT22;59870;50.106;8.580;2023-02-18T01:40:58;16.10;95.90
11246;DHT22;59870;50.106;8.580;2023-02-18T01:43:27;16.10;95.80
11246;DHT22;59870;50.106;8.580;2023-02-18T01:46:20;16.10;95.80
11246;DHT22;59870;50.106;8.580;2023-02-18T01:48:54;16.10;95.90
11246;DHT22;59870;50.106;8.580;2023-02-18T01:51:25;16.10;95.80
11246;DHT22;59870;50.106;8.580;2023-02-18T01:53:58;16.10;95.80
11246;DHT22;59870;50.106;8.580;2023-02-18T01:56:32;16.00;95.70
11246;DHT22;59870;50.106;8.580;2023-02-18T01:59:04;16.00;95.60
11246;DHT22;59870;50.106;8.580;2023-02-18T02:01:33;16.00;95.70
11246;DHT22;59870;50.106;8.580;2023-02-18T02:04:02;16.00;95.90
11246;DHT22;59870;50.106;8.580;2023-02-18T02:06:29;16.00;95.50
11246;DHT22;59870;50.106;8.580;2023-02-18T02:08:58;15.90;95.30
11246;DHT22;59870;50.106;8.580;2023-02-18T02:17:10;15.90;95.30
11246;DHT22;59870;50.106;8.580;2023-02-18T02:22:54;15.80;95.20
11246;DHT22;59870;50.106;8.580;2023-02-18T02:28:49;15.90;95.10
11246;DHT22;59870;50.106;8.580;2023-02-18T02:34:37;15.80;95.00
11246;DHT22;59870;50.106;8.580;2023-02-18T02:39:56;15.80;95.00
11246;DHT22;59870;50.106;8.580;2023-02-18T02:48:58;15.70;94.90
11246;DHT22;59870;50.106;8.580;2023-02-18T02:51:42;15.70;94.90
11246;DHT22;59870;50.106;8.580;2023-02-18T02:54:25;15.70;94.90
11246;DHT22;59870;50.106;8.580;2023-02-18T02:59:32;15.70;94.80
11246;DHT22;59870;50.106;8.580;2023-02-18T03:02:25;15.70;94.90
11246;DHT22;59870;50.106;8.580;2023-02-18T03:18:36;15.70;95.00
11246;DHT22;59870;50.106;8.580;2023-02-18T03:24:15;15.70;95.10
11246;DHT22;59870;50.106;8.580;2023-02-18T03:26:51;15.70;95.10
11246;DHT22;59870;50.106;8.580;2023-02-18T03:29:21;15.70;95.40
11246;DHT22;59870;50.106;8.580;2023-02-18T03:31:54;15.70;95.10
11246;DHT22;59870;50.106;8.580;2023-02-18T03:34:27;15.70;95.10
11246;DHT22;59870;50.106;8.580;2023-02-18T03:36:57;15.70;95.10
11246;DHT22;59870;50.106;8.580;2023-02-18T03:39:26;15.70;95.10
11246;DHT22;59870;50.106;8.580;2023-02-18T03:41:54;15.70;95.10
11246;DHT22;59870;50.106;8.580;2023-02-18T03:44:23;15.70;95.00
11246;DHT22;59870;50.106;8.580;2023-02-18T03:46:51;15.80;94.90
11246;DHT22;59870;50.106;8.580;2023-02-18T03:49:19;15.70;94.90
11246;DHT22;59870;50.106;8.580;2023-02-18T03:51:47;15.80;94.80
11246;DHT22;59870;50.106;8.580;2023-02-18T03:54:14;15.80;94.80
11246;DHT22;59870;50.106;8.580;2023-02-18T03:56:42;15.80;94.80
11246;DHT22;59870;50.106;8.580;2023-02-18T03:59:11;15.80;94.90
11246;DHT22;59870;50.106;8.580;2023-02-18T04:01:39;15.80;94.90
11246;DHT22;59870;50.106;8.580;2023-02-18T04:04:06;15.80;94.90
11246;DHT22;59870;50.106;8.580;2023-02-18T04:06:34;15.80;94.90
11246;DHT22;59870;50.106;8.580;2023-02-18T04:09:01;15.80;94.80
11246;DHT22;59870;50.106;8.580;2023-02-18T04:11:36;15.80;94.80
11246;DHT22;59870;50.106;8.580;2023-02-18T04:14:05;15.80;94.90
11246;DHT22;59870;50.106;8.580;2023-02-18T04:16:32;15.80;94.80
11246;DHT22;59870;50.106;8.580;2023-02-18T04:18:59;15.80;94.80
11246;DHT22;59870;50.106;8.580;2023-02-18T04:21:27;15.80;94.80
11246;DHT22;59870;50.106;8.580;2023-02-18T04:23:54;15.80;94.80
11246;DHT22;59870;50.106;8.580;2023-02-18T04:26:21;15.80;94.80
11246;DHT22;59870;50.106;8.580;2023-02-18T04:28:49;15.80;94.80
11246;DHT22;59870;50.106;8.580;2023-02-18T04:31:16;15.90;94.80
11246;DHT22;59870;50.106;8.580;2023-02-18T04:33:44;15.90;94.80
11246;DHT22;59870;50.106;8.580;2023-02-18T04:36:12;15.80;94.80
11246;DHT22;59870;50.106;8.580;2023-02-18T04:38:39;15.80;94.70
11246;DHT22;59870;50.106;8.580;2023-02-18T04:41:09;15.80;94.70
11246;DHT22;59870;50.106;8.580;2023-02-18T04:43:38;15.80;94.70
11246;DHT22;59870;50.106;8.580;2023-02-18T04:46:06;15.80;94.70
11246;DHT22;59870;50.106;8.580;2023-02-18T04:48:34;15.80;94.60
11246;DHT22;59870;50.106;8.580;2023-02-18T04:51:02;15.80;94.70
11246;DHT22;59870;50.106;8.580;2023-02-18T04:53:29;15.80;94.60
11246;DHT22;59870;50.106;8.580;2023-02-18T04:55:57;15.80;94.60
11246;DHT22;59870;50.106;8.580;2023-02-18T04:58:25;15.80;94.50
11246;DHT22;59870;50.106;8.580;2023-02-18T05:00:52;15.80;94.50
11246;DHT22;59870;50.106;8.580;2023-02-18T05:03:20;15.80;94.50
11246;DHT22;59870;50.106;8.580;2023-02-18T05:05:47;15.80;94.70
11246;DHT22;59870;50.106;8.580;2023-02-18T05:08:15;15.80;95.20
11246;DHT22;59870;50.106;8.580;2023-02-18T05:10:42;15.80;95.10
11246;DHT22;59870;50.106;8.580;2023-02-18T05:13:10;15.80;95.30
11246;DHT22;59870;50.106;8.580;2023-02-18T05:15:37;16.20;95.60
11246;DHT22;59870;50.106;8.580;2023-02-18T05:18:05;15.80;95.60
11246;DHT22;59870;50.106;8.580;2023-02-18T05:20:33;15.80;95.80
11246;DHT22;59870;50.106;8.580;2023-02-18T05:23:01;15.70;95.90
11246;DHT22;59870;50.106;8.580;2023-02-18T05:25:28;15.70;96.00
11246;DHT22;59870;50.106;8.580;2023-02-18T05:27:55;15.70;96.10
11246;DHT22;59870;50.106;8.580;2023-02-18T05:30:23;15.70;96.00
11246;DHT22;59870;50.106;8.580;2023-02-18T05:32:50;15.70;95.90
11246;DHT22;59870;50.106;8.580;2023-02-18T05:35:18;15.60;95.90
11246;DHT22;59870;50.106;8.580;2023-02-18T05:37:45;15.60;95.80
11246;DHT22;59870;50.106;8.580;2023-02-18T05:40:12;15.60;95.70
11246;DHT22;59870;50.106;8.580;2023-02-18T05:42:40;15.60;95.70
11246;DHT22;59870;50.106;8.580;2023-02-18T05:45:08;15.90;95.80
11246;DHT22;59870;50.106;8.580;2023-02-18T05:47:35;15.60;95.70
11246;DHT22;59870;50.106;8.580;2023-02-18T05:50:03;15.60;95.80
11246;DHT22;59870;50.106;8.580;2023-02-18T05:52:31;15.50;95.80
11246;DHT22;59870;50.106;8.580;2023-02-18T05:54:58;15.50;95.90
11246;DHT22;59870;50.106;8.580;2023-02-18T05:57:25;15.50;95.80
11246;DHT22;59870;50.106;8.580;2023-02-18T05:59:53;15.50;95.90
11246;DHT22;59870;50.106;8.580;2023-02-18T06:02:20;15.50;96.00
11246;DHT22;59870;50.106;8.580;2023-02-18T06:04:47;15.50;95.90
11246;DHT22;59870;50.106;8.580;2023-02-18T06:07:15;15.50;96.00
11246;DHT22;59870;50.106;8.580;2023-02-18T06:09:42;15.50;95.80
11246;DHT22;59870;50.106;8.580;2023-02-18T06:12:09;15.50;95.90
11246;DHT22;59870;50.106;8.580;2023-02-18T06:14:37;15.50;95.90
11246;DHT22;59870;50.106;8.580;2023-02-18T06:17:09;15.60;96.00
11246;DHT22;59870;50.106;8.580;2023-02-18T06:19:37;15.50;95.90
11246;DHT22;59870;50.106;8.580;2023-02-18T06:22:05;15.50;95.70
11246;DHT22;59870;50.106;8.580;2023-02-18T06:24:32;15.50;95.70
11246;DHT22;59870;50.106;8.580;2023-02-18T06:27:00;15.50;95.50
11246;DHT22;59870;50.106;8.580;2023-02-18T06:29:27;15.50;95.50
11246;DHT22;59870;50.106;8.580;2023-02-18T06:31:58;15.50;95.20
11246;DHT22;59870;50.106;8.580;2023-02-18T06:34:26;15.50;95.00
11246;DHT22;59870;50.106;8.580;2023-02-18T06:36:54;15.50;95.00
11246;DHT22;59870;50.106;8.580;2023-02-18T06:39:22;15.50;94.80
11246;DHT22;59870;50.106;8.580;2023-02-18T06:41:49;15.50;94.60
11246;DHT22;59870;50.106;8.580;2023-02-18T06:44:17;15.50;94.50
11246;DHT22;59870;50.106;8.580;2023-02-18T06:46:44;15.50;94.30
11246;DHT22;59870;50.106;8.580;2023-02-18T06:49:11;15.50;94.20
11246;DHT22;59870;50.106;8.580;2023-02-18T06:51:39;15.50;94.10
11246;DHT22;59870;50.106;8.580;2023-02-18T06:54:06;15.50;93.90
11246;DHT22;59870;50.106;8.580;2023-02-18T06:56:34;15.50;93.80
11246;DHT22;59870;50.106;8.580;2023-02-18T06:59:01;15.60;93.60
11246;DHT22;59870;50.106;8.580;2023-02-18T07:01:28;15.50;93.40
11246;DHT22;59870;50.106;8.580;2023-02-18T07:03:56;15.50;93.30
11246;DHT22;59870;50.106;8.580;2023-02-18T07:06:23;15.50;93.00
11246;DHT22;59870;50.106;8.580;2023-02-18T07:08:53;15.60;92.90
11246;DHT22;59870;50.106;8.580;2023-02-18T07:11:20;15.50;92.70
11246;DHT22;59870;50.106;8.580;2023-02-18T07:13:48;15.50;92.60
11246;DHT22;59870;50.106;8.580;2023-02-18T07:16:15;15.40;92.60
11246;DHT22;59870;50.106;8.580;2023-02-18T07:18:42;15.40;92.50
11246;DHT22;59870;50.106;8.580;2023-02-18T07:21:10;15.40;92.60
11246;DHT22;59870;50.106;8.580;2023-02-18T07:23:38;15.30;92.40
11246;DHT22;59870;50.106;8.580;2023-02-18T07:26:08;15.30;92.10
11246;DHT22;59870;50.106;8.580;2023-02-18T07:28:37;15.40;92.10
11246;DHT22;59870;50.106;8.580;2023-02-18T07:31:04;15.40;91.70
11246;DHT22;59870;50.106;8.580;2023-02-18T07:33:32;15.40;91.40
11246;DHT22;59870;50.106;8.580;2023-02-18T07:36:01;15.40;91.40
11246;DHT22;59870;50.106;8.580;2023-02-18T07:38:29;15.40;91.50
11246;DHT22;59870;50.106;8.580;2023-02-18T07:40:57;15.40;91.10
11246;DHT22;59870;50.106;8.580;2023-02-18T07:43:25;15.30;91.10
11246;DHT22;59870;50.106;8.580;2023-02-18T07:45:53;15.30;90.90
11246;DHT22;59870;50.106;8.580;2023-02-18T07:48:21;15.30;91.20
11246;DHT22;59870;50.106;8.580;2023-02-18T07:50:48;15.30;90.90
11246;DHT22;59870;50.106;8.580;2023-02-18T07:53:16;15.30;90.90
11246;DHT22;59870;50.106;8.580;2023-02-18T07:55:43;15.30;90.60
11246;DHT22;59870;50.106;8.580;2023-02-18T07:58:21;15.30;90.40
11246;DHT22;59870;50.106;8.580;2023-02-18T08:00:49;15.30;90.50
11246;DHT22;59870;50.106;8.580;2023-02-18T08:03:26;14.90;90.20
11246;DHT22;59870;50.106;8.580;2023-02-18T08:05:54;15.50;90.10
11246;DHT22;59870;50.106;8.580;2023-02-18T08:08:24;15.30;90.00
11246;DHT22;59870;50.106;8.580;2023-02-18T08:10:54;15.30;90.00
11246;DHT22;59870;50.106;8.580;2023-02-18T08:13:21;15.30;90.10
11246;DHT22;59870;50.106;8.580;2023-02-18T08:15:49;15.30;90.30
11246;DHT22;59870;50.106;8.580;2023-02-18T08:18:18;15.30;90.20
11246;DHT22;59870;50.106;8.580;2023-02-18T08:20:47;15.40;90.40
11246;DHT22;59870;50.106;8.580;2023-02-18T08:23:15;15.40;90.00
11246;DHT22;59870;50.106;8.580;2023-02-18T08:25:48;15.50;90.20
11246;DHT22;59870;50.106;8.580;2023-02-18T08:28:22;15.50;90.00
11246;DHT22;59870;50.106;8.580;2023-02-18T08:30:51;15.50;89.90
11246;DHT22;59870;50.106;8.580;2023-02-18T08:33:20;15.60;89.00
11246;DHT22;59870;50.106;8.580;2023-02-18T08:35:49;15.60;88.00
11246;DHT22;59870;50.106;8.580;2023-02-18T08:38:17;15.80;88.60
11246;DHT22;59870;50.106;8.580;2023-02-18T08:40:44;15.60;87.60
11246;DHT22;59870;50.106;8.580;2023-02-18T08:43:13;15.70;87.20
11246;DHT22;59870;50.106;8.580;2023-02-18T08:45:41;15.60;87.30
11246;DHT22;59870;50.106;8.580;2023-02-18T08:48:10;15.70;87.40
11246;DHT22;59870;50.106;8.580;2023-02-18T08:50:47;15.70;87.20
11246;DHT22;59870;50.106;8.580;2023-02-18T08:53:15;15.70;86.50
11246;DHT22;59870;50.106;8.580;2023-02-18T08:55:42;15.70;86.70
11246;DHT22;59870;50.106;8.580;2023-02-18T08:58:10;15.70;87.00
11246;DHT22;59870;50.106;8.580;2023-02-18T09:00:39;15.70;87.00
11246;DHT22;59870;50.106;8.580;2023-02-18T09:03:12;15.70;87.40
11246;DHT22;59870;50.106;8.580;2023-02-18T09:05:40;15.80;86.90
11246;DHT22;59870;50.106;8.580;2023-02-18T09:08:07;15.80;87.40
11246;DHT22;59870;50.106;8.580;2023-02-18T09:10:35;15.80;86.30
11246;DHT22;59870;50.106;8.580;2023-02-18T09:13:02;15.90;86.20
11246;DHT22;59870;50.106;8.580;2023-02-18T09:15:32;15.90;86.40
11246;DHT22;59870;50.106;8.580;2023-02-18T09:17:59;15.90;86.90
11246;DHT22;59870;50.106;8.580;2023-02-18T09:20:27;15.90;87.10
11246;DHT22;59870;50.106;8.580;2023-02-18T09:22:55;15.90;85.70
11246;DHT22;59870;50.106;8.580;2023-02-18T09:25:23;15.90;87.30
11246;DHT22;59870;50.106;8.580;2023-02-18T09:27:51;15.90;88.00
11246;DHT22;59870;50.106;8.580;2023-02-18T09:30:18;15.90;86.70
11246;DHT22;59870;50.106;8.580;2023-02-18T09:32:46;15.90;86.80
11246;DHT22;59870;50.106;8.580;2023-02-18T09:35:13;15.90;86.40
11246;DHT22;59870;50.106;8.580;2023-02-18T09:37:41;15.90;86.40
11246;DHT22;59870;50.106;8.580;2023-02-18T09:40:23;15.90;86.10
11246;DHT22;59870;50.106;8.580;2023-02-18T09:42:54;16.20;87.00
11246;DHT22;59870;50.106;8.580;2023-02-18T09:45:23;15.90;86.60
11246;DHT22;59870;50.106;8.580;2023-02-18T09:47:52;15.90;86.00
11246;DHT22;59870;50.106;8.580;2023-02-18T09:50:29;15.90;86.80
11246;DHT22;59870;50.106;8.580;2023-02-18T09:53:00;15.90;86.70
11246;DHT22;59870;50.106;8.580;2023-02-18T09:58:02;15.90;86.20
11246;DHT22;59870;50.106;8.580;2023-02-18T10:00:40;15.90;86.10
11246;DHT22;59870;50.106;8.580;2023-02-18T10:03:17;15.90;86.50
11246;DHT22;59870;50.106;8.580;2023-02-18T10:06:10;15.90;86.10
11246;DHT22;59870;50.106;8.580;2023-02-18T10:08:53;15.80;86.20
11246;DHT22;59870;50.106;8.580;2023-02-18T10:11:51;15.70;86.50
11246;DHT22;59870;50.106;8.580;2023-02-18T10:16:08;15.70;86.50
11246;DHT22;59870;50.106;8.580;2023-02-18T10:19:40;15.70;86.10
11246;DHT22;59870;50.106;8.580;2023-02-18T11:08:27;15.60;86.80
11246;DHT22;59870;50.106;8.580;2023-02-18T11:14:45;15.70;86.70
11246;DHT22;59870;50.106;8.580;2023-02-18T11:17:20;15.70;87.10
11246;DHT22;59870;50.106;8.580;2023-02-18T11:19:58;15.70;86.60
11246;DHT22;59870;50.106;8.580;2023-02-18T11:22:34;15.60;86.50
11246;DHT22;59870;50.106;8.580;2023-02-18T11:31:46;15.30;86.90
11246;DHT22;59870;50.106;8.580;2023-02-18T11:34:31;15.70;86.20
11246;DHT22;59870;50.106;8.580;2023-02-18T11:37:16;15.70;87.00
11246;DHT22;59870;50.106;8.580;2023-02-18T11:39:50;15.70;86.30
11246;DHT22;59870;50.106;8.580;2023-02-18T11:42:22;15.70;85.80
11246;DHT22;59870;50.106;8.580;2023-02-18T11:45:28;16.00;86.50
11246;DHT22;59870;50.106;8.580;2023-02-18T11:48:02;15.30;85.80
11246;DHT22;59870;50.106;8.580;2023-02-18T11:51:00;15.70;86.10
11246;DHT22;59870;50.106;8.580;2023-02-18T11:53:34;16.00;86.50
11246;DHT22;59870;50.106;8.580;2023-02-18T11:56:16;15.70;85.80
11246;DHT22;59870;50.106;8.580;2023-02-18T11:58:46;15.70;86.10
11246;DHT22;59870;50.106;8.580;2023-02-18T12:01:58;15.70;86.00
11246;DHT22;59870;50.106;8.580;2023-02-18T12:10:25;15.90;86.00
11246;DHT22;59870;50.106;8.580;2023-02-18T12:15:13;15.60;86.20
11246;DHT22;59870;50.106;8.580;2023-02-18T13:23:51;15.70;90.10
11246;DHT22;59870;50.106;8.580;2023-02-18T13:39:15;15.70;90.50
11246;DHT22;59870;50.106;8.580;2023-02-18T13:41:48;16.10;90.70
11246;DHT22;59870;50.106;8.580;2023-02-18T13:47:52;15.90;90.50
11246;DHT22;59870;50.106;8.580;2023-02-18T13:52:01;15.90;90.30
11246;DHT22;59870;50.106;8.580;2023-02-18T13:54:45;16.00;90.20
11246;DHT22;59870;50.106;8.580;2023-02-18T13:57:31;15.90;90.40
11246;DHT22;59870;50.106;8.580;2023-02-18T14:06:26;16.20;90.60
11246;DHT22;59870;50.106;8.580;2023-02-18T14:21:39;15.50;91.20
11246;DHT22;59870;50.106;8.580;2023-02-18T14:28:34;15.80;91.10
11246;DHT22;59870;50.106;8.580;2023-02-18T14:36:08;15.90;91.50
11246;DHT22;59870;50.106;8.580;2023-02-18T14:49:54;15.80;91.30
11246;DHT22;59870;50.106;8.580;2023-02-18T14:52:33;15.90;91.60
11246;DHT22;59870;50.106;8.580;2023-02-18T14:55:05;15.90;91.30
11246;DHT22;59870;50.106;8.580;2023-02-18T14:57:39;15.90;91.00
11246;DHT22;59870;50.106;8.580;2023-02-18T15:00:38;16.00;91.10
11246;DHT22;59870;50.106;8.580;2023-02-18T15:03:14;16.00;90.90
11246;DHT22;59870;50.106;8.580;2023-02-18T15:06:02;16.00;91.00
11246;DHT22;59870;50.106;8.580;2023-02-18T15:08:36;16.10;91.00
11246;DHT22;59870;50.106;8.580;2023-02-18T15:11:06;15.70;90.70
11246;DHT22;59870;50.106;8.580;2023-02-18T15:13:42;16.60;91.00
11246;DHT22;59870;50.106;8.580;2023-02-18T15:16:48;16.10;90.60
11246;DHT22;59870;50.106;8.580;2023-02-18T15:19:21;16.00;90.60
11246;DHT22;59870;50.106;8.580;2023-02-18T15:21:50;16.10;90.60
11246;DHT22;59870;50.106;8.580;2023-02-18T15:24:36;16.10;90.30
11246;DHT22;59870;50.106;8.580;2023-02-18T15:27:33;16.10;90.30
11246;DHT22;59870;50.106;8.580;2023-02-18T15:32:38;16.10;90.10
11246;DHT22;59870;50.106;8.580;2023-02-18T15:35:15;16.00;90.10
11246;DHT22;59870;50.106;8.580;2023-02-18T15:37:53;16.00;90.00
11246;DHT22;59870;50.106;8.580;2023-02-18T15:40:24;16.00;90.10
11246;DHT22;59870;50.106;8.580;2023-02-18T15:42:56;16.60;90.20
11246;DHT22;59870;50.106;8.580;2023-02-18T15:45:33;16.10;89.80
11246;DHT22;59870;50.106;8.580;2023-02-18T15:48:01;16.10;90.00
11246;DHT22;59870;50.106;8.580;2023-02-18T15:50:30;16.00;89.80
11246;DHT22;59870;50.106;8.580;2023-02-18T15:53:06;16.00;89.70
11246;DHT22;59870;50.106;8.580;2023-02-18T15:56:06;16.00;89.90
11246;DHT22;59870;50.106;8.580;2023-02-18T15:59:27;16.00;89.70
11246;DHT22;59870;50.106;8.580;2023-02-18T16:03:22;16.00;89.80
11246;DHT22;59870;50.106;8.580;2023-02-18T16:07:26;15.90;89.70
11246;DHT22;59870;50.106;8.580;2023-02-18T16:10:46;15.80;89.90
11246;DHT22;59870;50.106;8.580;2023-02-18T16:13:49;15.80;90.00
11246;DHT22;59870;50.106;8.580;2023-02-18T16:16:33;15.80;89.90
11246;DHT22;59870;50.106;8.580;2023-02-18T16:20:13;15.60;90.00
11246;DHT22;59870;50.106;8.580;2023-02-18T16:23:00;15.30;89.90
11246;DHT22;59870;50.106;8.580;2023-02-18T16:25:44;15.70;90.10
11246;DHT22;59870;50.106;8.580;2023-02-18T16:32:55;15.60;90.30
11246;DHT22;59870;50.106;8.580;2023-02-18T16:35:29;15.30;90.00
11246;DHT22;59870;50.106;8.580;2023-02-18T16:38:20;15.30;90.10
11246;DHT22;59870;50.106;8.580;2023-02-18T16:40:51;15.70;90.30
11246;DHT22;59870;50.106;8.580;2023-02-18T16:43:22;15.50;90.00
11246;DHT22;59870;50.106;8.580;2023-02-18T16:45:56;15.80;90.00
11246;DHT22;59870;50.106;8.580;2023-02-18T16:48:36;15.80;90.20
11246;DHT22;59870;50.106;8.580;2023-02-18T16:51:16;16.10;90.20
11246;DHT22;59870;50.106;8.580;2023-02-18T16:53:51;16.10;90.40
11246;DHT22;59870;50.106;8.580;2023-02-18T17:00:54;16.00;90.30
11246;DHT22;59870;50.106;8.580;2023-02-18T17:07:21;15.80;90.30
11246;DHT22;59870;50.106;8.580;2023-02-18T17:10:12;15.80;90.10
11246;DHT22;59870;50.106;8.580;2023-02-18T17:12:41;15.50;89.60
11246;DHT22;59870;50.106;8.580;2023-02-18T17:15:37;15.80;90.30
11246;DHT22;59870;50.106;8.580;2023-02-18T17:18:26;15.40;90.10
11246;DHT22;59870;50.106;8.580;2023-02-18T17:21:02;15.50;89.70
11246;DHT22;59870;50.106;8.580;2023-02-18T17:23:39;15.50;90.10
11246;DHT22;59870;50.106;8.580;2023-02-18T17:26:21;15.90;90.30
11246;DHT22;59870;50.106;8.580;2023-02-18T17:28:52;15.70;90.30
11246;DHT22;59870;50.106;8.580;2023-02-18T17:31:25;16.00;90.60
11246;DHT22;59870;50.106;8.580;2023-02-18T17:33:59;16.00;90.50
11246;DHT22;59870;50.106;8.580;2023-02-18T17:36:29;15.70;90.20
11246;DHT22;59870;50.106;8.580;2023-02-18T17:38:58;15.70;89.90
11246;DHT22;59870;50.106;8.580;2023-02-18T17:41:29;15.70;90.10
11246;DHT22;59870;50.106;8.580;2023-02-18T17:43:58;15.50;89.80
11246;DHT22;59870;50.106;8.580;2023-02-18T17:46:28;15.70;90.10
11246;DHT22;59870;50.106;8.580;2023-02-18T17:48:56;15.70;90.20
11246;DHT22;59870;50.106;8.580;2023-02-18T17:51:27;15.90;90.00
11246;DHT22;59870;50.106;8.580;2023-02-18T17:53:56;15.80;90.20
11246;DHT22;59870;50.106;8.580;2023-02-18T17:56:24;15.60;90.50
11246;DHT22;59870;50.106;8.580;2023-02-18T17:58:52;15.90;90.50
11246;DHT22;59870;50.106;8.580;2023-02-18T18:01:19;15.60;90.40
11246;DHT22;59870;50.106;8.580;2023-02-18T18:03:50;15.50;90.50
11246;DHT22;59870;50.106;8.580;2023-02-18T18:06:19;15.50;90.40
11246;DHT22;59870;50.106;8.580;2023-02-18T18:08:48;15.50;90.50
11246;DHT22;59870;50.106;8.580;2023-02-18T18:11:19;15.50;90.50
11246;DHT22;59870;50.106;8.580;2023-02-18T18:13:47;15.50;90.50
11246;DHT22;59870;50.106;8.580;2023-02-18T18:16:15;15.50;90.50
11246;DHT22;59870;50.106;8.580;2023-02-18T18:18:43;15.40;90.60
11246;DHT22;59870;50.106;8.580;2023-02-18T18:21:31;15.40;90.60
11246;DHT22;59870;50.106;8.580;2023-02-18T18:24:00;15.30;90.70
11246;DHT22;59870;50.106;8.580;2023-02-18T18:26:27;15.40;90.70
11246;DHT22;59870;50.106;8.580;2023-02-18T18:28:56;15.30;90.70
11246;DHT22;59870;50.106;8.580;2023-02-18T18:31:24;15.40;90.70
11246;DHT22;59870;50.106;8.580;2023-02-18T18:33:53;15.60;90.70
11246;DHT22;59870;50.106;8.580;2023-02-18T18:36:22;15.50;90.60
11246;DHT22;59870;50.106;8.580;2023-02-18T18:38:54;15.30;90.70
11246;DHT22;59870;50.106;8.580;2023-02-18T18:41:29;14.80;90.30
11246;DHT22;59870;50.106;8.580;2023-02-18T18:44:29;14.80;90.60
11246;DHT22;59870;50.106;8.580;2023-02-18T18:46:56;15.20;90.70
11246;DHT22;59870;50.106;8.580;2023-02-18T18:49:24;15.20;90.80
11246;DHT22;59870;50.106;8.580;2023-02-18T18:51:51;15.40;91.10
11246;DHT22;59870;50.106;8.580;2023-02-18T18:54:23;15.40;91.00
11246;DHT22;59870;50.106;8.580;2023-02-18T18:56:50;15.40;91.20
11246;DHT22;59870;50.106;8.580;2023-02-18T19:19:11;15.00;91.20
11246;DHT22;59870;50.106;8.580;2023-02-18T19:21:38;15.30;91.40
11246;DHT22;59870;50.106;8.580;2023-02-18T19:24:08;15.00;91.40
11246;DHT22;59870;50.106;8.580;2023-02-18T19:26:38;15.00;91.50
11246;DHT22;59870;50.106;8.580;2023-02-18T19:29:05;15.00;91.50
11246;DHT22;59870;50.106;8.580;2023-02-18T19:31:32;15.00;91.50
11246;DHT22;59870;50.106;8.580;2023-02-18T19:33:59;15.00;91.50
11246;DHT22;59870;50.106;8.580;2023-02-18T19:36:27;15.00;91.50
11246;DHT22;59870;50.106;8.580;2023-02-18T19:39:00;15.00;91.50
11246;DHT22;59870;50.106;8.580;2023-02-18T19:41:32;15.00;91.50
11246;DHT22;59870;50.106;8.580;2023-02-18T19:44:32;15.00;91.50
11246;DHT22;59870;50.106;8.580;2023-02-18T19:47:01;15.00;91.50
11246;DHT22;59870;50.106;8.580;2023-02-18T19:49:28;15.00;91.50
11246;DHT22;59870;50.106;8.580;2023-02-18T19:51:56;15.00;91.80
11246;DHT22;59870;50.106;8.580;2023-02-18T19:54:31;15.00;91.60
11246;DHT22;59870;50.106;8.580;2023-02-18T19:56:58;14.90;91.60
11246;DHT22;59870;50.106;8.580;2023-02-18T19:59:28;14.90;91.70
11246;DHT22;59870;50.106;8.580;2023-02-18T20:01:55;14.90;91.60
11246;DHT22;59870;50.106;8.580;2023-02-18T20:04:23;14.90;91.60
11246;DHT22;59870;50.106;8.580;2023-02-18T20:06:54;14.90;91.70
11246;DHT22;59870;50.106;8.580;2023-02-18T20:09:22;14.90;91.70
11246;DHT22;59870;50.106;8.580;2023-02-18T20:11:50;14.90;91.70
11246;DHT22;59870;50.106;8.580;2023-02-18T20:14:18;14.90;91.70
11246;DHT22;59870;50.106;8.580;2023-02-18T20:16:47;14.90;91.60
11246;DHT22;59870;50.106;8.580;2023-02-18T20:19:15;14.90;91.60
11246;DHT22;59870;50.106;8.580;2023-02-18T20:21:42;14.90;91.70
11246;DHT22;59870;50.106;8.580;2023-02-18T20:24:11;14.80;91.60
11246;DHT22;59870;50.106;8.580;2023-02-18T20:26:39;14.90;91.60
11246;DHT22;59870;50.106;8.580;2023-02-18T20:29:06;14.90;91.70
11246;DHT22;59870;50.106;8.580;2023-02-18T20:31:33;14.80;91.70
11246;DHT22;59870;50.106;8.580;2023-02-18T20:34:01;14.90;91.70
11246;DHT22;59870;50.106;8.580;2023-02-18T20:36:28;14.80;91.60